sensor_id;sensor_type;location;lat;lon;timestamp;P1;durP1;ratioP1;P2;durP2;ratioP2
78298;SDS011;67556;55.656;12.590;2023-05-10T00:02:11;5.13;;;3.80;;
78298;SDS011;67556;55.656;12.590;2023-05-10T00:04:38;6.50;;;3.50;;
78298;SDS011;67556;55.656;12.590;2023-05-10T00:07:11;7.88;;;4.30;;
78298;SDS011;67556;55.656;12.590;2023-05-10T00:09:38;5.05;;;3.53;;
78298;SDS011;67556;55.656;12.590;2023-05-10T00:12:05;7.68;;;4.05;;
78298;SDS011;67556;55.656;12.590;2023-05-10T00:14:35;7.40;;;3.65;;
78298;SDS011;67556;55.656;12.590;2023-05-10T00:17:02;7.15;;;3.72;;
78298;SDS011;67556;55.656;12.590;2023-05-10T00:19:29;5.03;;;3.95;;
78298;SDS011;67556;55.656;12.590;2023-05-10T00:21:56;4.97;;;3.92;;
78298;SDS011;67556;55.656;12.590;2023-05-10T00:24:25;6.53;;;4.03;;
78298;SDS011;67556;55.656;12.590;2023-05-10T00:26:53;8.43;;;3.95;;
78298;SDS011;67556;55.656;12.590;2023-05-10T00:29:19;6.80;;;3.88;;
78298;SDS011;67556;55.656;12.590;2023-05-10T00:31:58;5.95;;;3.70;;
78298;SDS011;67556;55.656;12.590;2023-05-10T00:34:31;6.00;;;3.78;;
78298;SDS011;67556;55.656;12.590;2023-05-10T00:37:07;8.88;;;4.18;;
78298;SDS011;67556;55.656;12.590;2023-05-10T00:39:36;6.10;;;4.32;;
78298;SDS011;67556;55.656;12.590;2023-05-10T00:42:03;8.15;;;3.70;;
78298;SDS011;67556;55.656;12.590;2023-05-10T00:44:30;5.75;;;4.13;;
78298;SDS011;67556;55.656;12.590;2023-05-10T00:47:02;4.32;;;3.63;;
78298;SDS011;67556;55.656;12.590;2023-05-10T00:49:29;4.55;;;3.67;;
78298;SDS011;67556;55.656;12.590;2023-05-10T00:52:12;7.47;;;3.97;;
78298;SDS011;67556;55.656;12.590;2023-05-10T00:54:46;6.57;;;4.75;;
78298;SDS011;67556;55.656;12.590;2023-05-10T00:57:14;6.47;;;4.18;;
78298;SDS011;67556;55.656;12.590;2023-05-10T00:59:46;5.75;;;3.60;;
78298;SDS011;67556;55.656;12.590;2023-05-10T01:02:20;7.43;;;4.78;;
78298;SDS011;67556;55.656;12.590;2023-05-10T01:04:57;5.63;;;4.10;;
78298;SDS011;67556;55.656;12.590;2023-05-10T01:07:24;8.13;;;4.28;;
78298;SDS011;67556;55.656;12.590;2023-05-10T01:09:53;7.68;;;4.22;;
78298;SDS011;67556;55.656;12.590;2023-05-10T01:12:25;5.47;;;4.25;;
78298;SDS011;67556;55.656;12.590;2023-05-10T01:14:52;8.30;;;4.07;;
78298;SDS011;67556;55.656;12.590;2023-05-10T01:17:20;4.60;;;3.92;;
78298;SDS011;67556;55.656;12.590;2023-05-10T01:19:48;8.13;;;4.97;;
78298;SDS011;67556;55.656;12.590;2023-05-10T01:22:25;5.30;;;4.63;;
78298;SDS011;67556;55.656;12.590;2023-05-10T01:25:14;5.57;;;3.97;;
78298;SDS011;67556;55.656;12.590;2023-05-10T01:28:01;6.68;;;4.03;;
78298;SDS011;67556;55.656;12.590;2023-05-10T01:30:49;5.63;;;4.00;;
78298;SDS011;67556;55.656;12.590;2023-05-10T01:33:31;6.40;;;4.15;;
78298;SDS011;67556;55.656;12.590;2023-05-10T01:38:51;9.88;;;4.45;;
78298;SDS011;67556;55.656;12.590;2023-05-10T01:41:25;6.40;;;4.20;;
78298;SDS011;67556;55.656;12.590;2023-05-10T01:44:01;7.72;;;4.53;;
78298;SDS011;67556;55.656;12.590;2023-05-10T01:46:33;5.35;;;4.47;;
78298;SDS011;67556;55.656;12.590;2023-05-10T01:49:06;6.35;;;4.72;;
78298;SDS011;67556;55.656;12.590;2023-05-10T01:51:36;5.78;;;4.50;;
78298;SDS011;67556;55.656;12.590;2023-05-10T01:54:06;7.38;;;5.07;;
78298;SDS011;67556;55.656;12.590;2023-05-10T01:56:35;7.38;;;4.50;;
78298;SDS011;67556;55.656;12.590;2023-05-10T01:59:05;8.77;;;4.15;;
78298;SDS011;67556;55.656;12.590;2023-05-10T02:01:36;5.07;;;3.88;;
78298;SDS011;67556;55.656;12.590;2023-05-10T02:04:06;7.95;;;4.28;;
78298;SDS011;67556;55.656;12.590;2023-05-10T02:06:35;8.15;;;4.57;;
78298;SDS011;67556;55.656;12.590;2023-05-10T02:09:13;5.97;;;4.68;;
78298;SDS011;67556;55.656;12.590;2023-05-10T02:11:41;5.85;;;4.20;;
78298;SDS011;67556;55.656;12.590;2023-05-10T02:14:10;6.35;;;3.95;;
78298;SDS011;67556;55.656;12.590;2023-05-10T02:16:39;6.43;;;4.50;;
78298;SDS011;67556;55.656;12.590;2023-05-10T02:19:08;6.03;;;3.95;;
78298;SDS011;67556;55.656;12.590;2023-05-10T02:21:37;4.90;;;4.10;;
78298;SDS011;67556;55.656;12.590;2023-05-10T02:24:11;7.07;;;4.35;;
78298;SDS011;67556;55.656;12.590;2023-05-10T02:26:41;11.65;;;4.40;;
78298;SDS011;67556;55.656;12.590;2023-05-10T02:29:08;5.18;;;3.92;;
78298;SDS011;67556;55.656;12.590;2023-05-10T02:31:38;6.07;;;4.40;;
78298;SDS011;67556;55.656;12.590;2023-05-10T02:34:09;6.45;;;4.30;;
78298;SDS011;67556;55.656;12.590;2023-05-10T02:36:37;8.82;;;4.10;;
78298;SDS011;67556;55.656;12.590;2023-05-10T02:39:05;7.70;;;4.18;;
78298;SDS011;67556;55.656;12.590;2023-05-10T02:41:42;8.00;;;4.30;;
78298;SDS011;67556;55.656;12.590;2023-05-10T02:44:11;5.38;;;4.20;;
78298;SDS011;67556;55.656;12.590;2023-05-10T02:46:55;9.05;;;4.65;;
78298;SDS011;67556;55.656;12.590;2023-05-10T02:49:25;8.57;;;4.65;;
78298;SDS011;67556;55.656;12.590;2023-05-10T02:52:00;6.47;;;4.35;;
78298;SDS011;67556;55.656;12.590;2023-05-10T02:54:33;5.72;;;4.55;;
78298;SDS011;67556;55.656;12.590;2023-05-10T02:57:07;5.38;;;4.20;;
78298;SDS011;67556;55.656;12.590;2023-05-10T02:59:39;7.95;;;4.68;;
78298;SDS011;67556;55.656;12.590;2023-05-10T03:02:13;6.28;;;4.13;;
78298;SDS011;67556;55.656;12.590;2023-05-10T03:04:41;6.40;;;4.60;;
78298;SDS011;67556;55.656;12.590;2023-05-10T03:07:08;8.07;;;4.60;;
78298;SDS011;67556;55.656;12.590;2023-05-10T03:09:49;11.02;;;5.00;;
78298;SDS011;67556;55.656;12.590;2023-05-10T03:12:19;7.88;;;4.68;;
78298;SDS011;67556;55.656;12.590;2023-05-10T03:14:53;6.93;;;4.82;;
78298;SDS011;67556;55.656;12.590;2023-05-10T03:17:29;8.25;;;4.47;;
78298;SDS011;67556;55.656;12.590;2023-05-10T03:20:02;7.85;;;4.68;;
78298;SDS011;67556;55.656;12.590;2023-05-10T03:22:34;7.88;;;3.95;;
78298;SDS011;67556;55.656;12.590;2023-05-10T03:25:06;5.78;;;4.00;;
78298;SDS011;67556;55.656;12.590;2023-05-10T03:27:34;6.45;;;4.43;;
78298;SDS011;67556;55.656;12.590;2023-05-10T03:30:02;7.00;;;4.72;;
78298;SDS011;67556;55.656;12.590;2023-05-10T03:32:48;5.82;;;4.53;;
78298;SDS011;67556;55.656;12.590;2023-05-10T03:35:32;4.63;;;4.20;;
78298;SDS011;67556;55.656;12.590;2023-05-10T03:38:04;7.72;;;4.95;;
78298;SDS011;67556;55.656;12.590;2023-05-10T03:40:36;6.10;;;4.22;;
78298;SDS011;67556;55.656;12.590;2023-05-10T03:43:03;8.73;;;4.63;;
78298;SDS011;67556;55.656;12.590;2023-05-10T03:45:32;7.38;;;3.90;;
78298;SDS011;67556;55.656;12.590;2023-05-10T03:48:00;5.75;;;4.63;;
78298;SDS011;67556;55.656;12.590;2023-05-10T03:50:29;8.68;;;4.57;;
78298;SDS011;67556;55.656;12.590;2023-05-10T03:53:09;6.95;;;4.50;;
78298;SDS011;67556;55.656;12.590;2023-05-10T03:55:57;5.78;;;4.60;;
78298;SDS011;67556;55.656;12.590;2023-05-10T03:58:31;6.25;;;4.20;;
78298;SDS011;67556;55.656;12.590;2023-05-10T04:01:09;6.97;;;4.88;;
78298;SDS011;67556;55.656;12.590;2023-05-10T04:03:37;5.78;;;4.90;;
78298;SDS011;67556;55.656;12.590;2023-05-10T04:06:06;6.78;;;4.65;;
78298;SDS011;67556;55.656;12.590;2023-05-10T04:08:38;8.85;;;5.80;;
78298;SDS011;67556;55.656;12.590;2023-05-10T04:11:07;7.70;;;4.63;;
78298;SDS011;67556;55.656;12.590;2023-05-10T04:13:37;5.60;;;4.43;;
78298;SDS011;67556;55.656;12.590;2023-05-10T04:16:06;5.55;;;4.40;;
78298;SDS011;67556;55.656;12.590;2023-05-10T04:18:33;8.70;;;5.18;;
78298;SDS011;67556;55.656;12.590;2023-05-10T04:21:00;7.68;;;5.10;;
78298;SDS011;67556;55.656;12.590;2023-05-10T04:23:27;7.05;;;5.20;;
78298;SDS011;67556;55.656;12.590;2023-05-10T04:26:14;6.68;;;4.47;;
78298;SDS011;67556;55.656;12.590;2023-05-10T04:28:59;6.97;;;4.60;;
78298;SDS011;67556;55.656;12.590;2023-05-10T04:31:34;9.32;;;4.60;;
78298;SDS011;67556;55.656;12.590;2023-05-10T04:34:11;10.20;;;4.95;;
78298;SDS011;67556;55.656;12.590;2023-05-10T04:36:38;7.13;;;5.20;;
78298;SDS011;67556;55.656;12.590;2023-05-10T04:39:04;4.80;;;4.10;;
78298;SDS011;67556;55.656;12.590;2023-05-10T04:41:50;8.02;;;5.07;;
78298;SDS011;67556;55.656;12.590;2023-05-10T04:44:30;8.25;;;5.15;;
78298;SDS011;67556;55.656;12.590;2023-05-10T04:46:57;8.65;;;4.57;;
78298;SDS011;67556;55.656;12.590;2023-05-10T04:49:26;8.20;;;5.07;;
78298;SDS011;67556;55.656;12.590;2023-05-10T04:51:52;7.95;;;5.30;;
78298;SDS011;67556;55.656;12.590;2023-05-10T04:54:25;7.72;;;5.15;;
78298;SDS011;67556;55.656;12.590;2023-05-10T04:57:11;10.02;;;5.68;;
78298;SDS011;67556;55.656;12.590;2023-05-10T04:59:40;5.65;;;4.80;;
78298;SDS011;67556;55.656;12.590;2023-05-10T05:02:26;7.07;;;4.35;;
78298;SDS011;67556;55.656;12.590;2023-05-10T05:04:52;9.50;;;4.95;;
78298;SDS011;67556;55.656;12.590;2023-05-10T05:07:30;6.10;;;4.57;;
78298;SDS011;67556;55.656;12.590;2023-05-10T05:09:57;7.60;;;4.93;;
78298;SDS011;67556;55.656;12.590;2023-05-10T05:12:42;7.70;;;4.40;;
78298;SDS011;67556;55.656;12.590;2023-05-10T05:15:27;9.50;;;5.30;;
78298;SDS011;67556;55.656;12.590;2023-05-10T05:17:54;6.35;;;4.95;;
78298;SDS011;67556;55.656;12.590;2023-05-10T05:20:21;8.57;;;4.90;;
78298;SDS011;67556;55.656;12.590;2023-05-10T05:22:48;6.65;;;4.65;;
78298;SDS011;67556;55.656;12.590;2023-05-10T05:25:21;6.60;;;4.50;;
78298;SDS011;67556;55.656;12.590;2023-05-10T05:27:50;6.13;;;5.10;;
78298;SDS011;67556;55.656;12.590;2023-05-10T05:30:23;5.47;;;4.85;;
78298;SDS011;67556;55.656;12.590;2023-05-10T05:32:49;9.25;;;5.25;;
78298;SDS011;67556;55.656;12.590;2023-05-10T05:35:16;6.75;;;4.65;;
78298;SDS011;67556;55.656;12.590;2023-05-10T05:37:56;8.27;;;5.57;;
78298;SDS011;67556;55.656;12.590;2023-05-10T05:40:25;6.13;;;4.72;;
78298;SDS011;67556;55.656;12.590;2023-05-10T05:43:05;7.72;;;5.18;;
78298;SDS011;67556;55.656;12.590;2023-05-10T05:45:36;6.93;;;5.55;;
78298;SDS011;67556;55.656;12.590;2023-05-10T05:48:03;8.93;;;4.50;;
78298;SDS011;67556;55.656;12.590;2023-05-10T05:50:35;9.00;;;4.78;;
78298;SDS011;67556;55.656;12.590;2023-05-10T05:53:02;13.32;;;5.28;;
78298;SDS011;67556;55.656;12.590;2023-05-10T05:55:50;6.50;;;5.05;;
78298;SDS011;67556;55.656;12.590;2023-05-10T05:58:20;6.35;;;5.10;;
78298;SDS011;67556;55.656;12.590;2023-05-10T06:01:00;3.55;;;2.88;;
78298;SDS011;67556;55.656;12.590;2023-05-10T06:03:26;6.35;;;4.70;;
78298;SDS011;67556;55.656;12.590;2023-05-10T06:05:59;7.47;;;5.03;;
78298;SDS011;67556;55.656;12.590;2023-05-10T06:08:25;7.18;;;4.72;;
78298;SDS011;67556;55.656;12.590;2023-05-10T06:10:57;6.97;;;5.22;;
78298;SDS011;67556;55.656;12.590;2023-05-10T06:13:26;7.13;;;5.07;;
78298;SDS011;67556;55.656;12.590;2023-05-10T06:15:57;8.82;;;5.30;;
78298;SDS011;67556;55.656;12.590;2023-05-10T06:18:23;6.60;;;5.00;;
78298;SDS011;67556;55.656;12.590;2023-05-10T06:20:50;6.95;;;4.90;;
78298;SDS011;67556;55.656;12.590;2023-05-10T06:23:35;9.65;;;5.32;;
78298;SDS011;67556;55.656;12.590;2023-05-10T06:26:01;7.63;;;4.65;;
78298;SDS011;67556;55.656;12.590;2023-05-10T06:28:38;6.80;;;4.60;;
78298;SDS011;67556;55.656;12.590;2023-05-10T06:31:12;6.22;;;5.47;;
78298;SDS011;67556;55.656;12.590;2023-05-10T06:33:39;7.80;;;5.35;;
78298;SDS011;67556;55.656;12.590;2023-05-10T06:36:23;6.97;;;4.38;;
78298;SDS011;67556;55.656;12.590;2023-05-10T06:38:53;7.18;;;5.18;;
78298;SDS011;67556;55.656;12.590;2023-05-10T06:41:19;6.53;;;4.32;;
78298;SDS011;67556;55.656;12.590;2023-05-10T06:44:09;6.07;;;4.60;;
78298;SDS011;67556;55.656;12.590;2023-05-10T06:46:42;6.95;;;4.65;;
78298;SDS011;67556;55.656;12.590;2023-05-10T06:49:09;4.90;;;4.40;;
78298;SDS011;67556;55.656;12.590;2023-05-10T06:51:57;6.60;;;5.10;;
78298;SDS011;67556;55.656;12.590;2023-05-10T06:54:23;9.38;;;5.20;;
78298;SDS011;67556;55.656;12.590;2023-05-10T06:57:08;9.48;;;5.30;;
78298;SDS011;67556;55.656;12.590;2023-05-10T06:59:45;7.25;;;4.78;;
78298;SDS011;67556;55.656;12.590;2023-05-10T07:02:11;7.43;;;5.00;;
78298;SDS011;67556;55.656;12.590;2023-05-10T07:04:58;7.80;;;4.75;;
78298;SDS011;67556;55.656;12.590;2023-05-10T07:07:26;8.40;;;5.03;;
78298;SDS011;67556;55.656;12.590;2023-05-10T07:09:53;5.10;;;3.85;;
78298;SDS011;67556;55.656;12.590;2023-05-10T07:12:22;8.27;;;5.18;;
78298;SDS011;67556;55.656;12.590;2023-05-10T07:14:56;6.15;;;5.10;;
78298;SDS011;67556;55.656;12.590;2023-05-10T07:17:22;7.18;;;4.57;;
78298;SDS011;67556;55.656;12.590;2023-05-10T07:19:49;6.25;;;4.93;;
78298;SDS011;67556;55.656;12.590;2023-05-10T07:22:19;6.75;;;4.47;;
78298;SDS011;67556;55.656;12.590;2023-05-10T07:24:45;8.25;;;4.85;;
78298;SDS011;67556;55.656;12.590;2023-05-10T07:27:18;5.90;;;5.13;;
78298;SDS011;67556;55.656;12.590;2023-05-10T07:29:44;6.75;;;4.72;;
78298;SDS011;67556;55.656;12.590;2023-05-10T07:32:21;6.15;;;4.55;;
78298;SDS011;67556;55.656;12.590;2023-05-10T07:35:16;5.95;;;4.18;;
78298;SDS011;67556;55.656;12.590;2023-05-10T07:38:01;10.05;;;4.35;;
78298;SDS011;67556;55.656;12.590;2023-05-10T07:40:28;5.97;;;4.90;;
78298;SDS011;67556;55.656;12.590;2023-05-10T07:42:55;8.23;;;5.40;;
78298;SDS011;67556;55.656;12.590;2023-05-10T07:45:40;7.10;;;5.70;;
78298;SDS011;67556;55.656;12.590;2023-05-10T07:48:24;6.10;;;4.72;;
78298;SDS011;67556;55.656;12.590;2023-05-10T07:50:51;6.72;;;4.88;;
78298;SDS011;67556;55.656;12.590;2023-05-10T07:53:23;7.80;;;4.72;;
78298;SDS011;67556;55.656;12.590;2023-05-10T07:55:59;7.65;;;4.93;;
78298;SDS011;67556;55.656;12.590;2023-05-10T07:58:31;7.53;;;5.15;;
78298;SDS011;67556;55.656;12.590;2023-05-10T08:00:59;7.05;;;4.75;;
78298;SDS011;67556;55.656;12.590;2023-05-10T08:03:28;7.80;;;4.72;;
78298;SDS011;67556;55.656;12.590;2023-05-10T08:05:56;5.90;;;4.20;;
78298;SDS011;67556;55.656;12.590;2023-05-10T08:08:22;6.07;;;4.70;;
78298;SDS011;67556;55.656;12.590;2023-05-10T08:10:50;7.53;;;5.15;;
78298;SDS011;67556;55.656;12.590;2023-05-10T08:13:16;6.25;;;4.22;;
78298;SDS011;67556;55.656;12.590;2023-05-10T08:15:43;9.90;;;5.20;;
78298;SDS011;67556;55.656;12.590;2023-05-10T08:18:10;8.60;;;5.03;;
78298;SDS011;67556;55.656;12.590;2023-05-10T08:20:43;7.07;;;4.53;;
78298;SDS011;67556;55.656;12.590;2023-05-10T08:23:11;8.57;;;4.40;;
78298;SDS011;67556;55.656;12.590;2023-05-10T08:25:39;8.30;;;4.80;;
78298;SDS011;67556;55.656;12.590;2023-05-10T08:28:06;7.70;;;5.30;;
78298;SDS011;67556;55.656;12.590;2023-05-10T08:30:41;7.57;;;4.13;;
78298;SDS011;67556;55.656;12.590;2023-05-10T08:33:07;7.05;;;4.40;;
78298;SDS011;67556;55.656;12.590;2023-05-10T08:35:33;9.07;;;5.22;;
78298;SDS011;67556;55.656;12.590;2023-05-10T08:38:04;6.78;;;4.78;;
78298;SDS011;67556;55.656;12.590;2023-05-10T08:40:35;7.03;;;4.82;;
78298;SDS011;67556;55.656;12.590;2023-05-10T08:43:19;6.53;;;4.57;;
78298;SDS011;67556;55.656;12.590;2023-05-10T08:45:52;6.32;;;4.75;;
78298;SDS011;67556;55.656;12.590;2023-05-10T08:48:22;7.28;;;4.57;;
78298;SDS011;67556;55.656;12.590;2023-05-10T08:50:51;5.50;;;4.03;;
78298;SDS011;67556;55.656;12.590;2023-05-10T08:53:32;6.93;;;4.30;;
78298;SDS011;67556;55.656;12.590;2023-05-10T08:56:02;6.50;;;4.65;;
78298;SDS011;67556;55.656;12.590;2023-05-10T08:58:48;9.32;;;4.78;;
78298;SDS011;67556;55.656;12.590;2023-05-10T09:01:17;6.32;;;4.13;;
78298;SDS011;67556;55.656;12.590;2023-05-10T09:03:45;6.20;;;4.93;;
78298;SDS011;67556;55.656;12.590;2023-05-10T09:06:32;6.38;;;4.53;;
78298;SDS011;67556;55.656;12.590;2023-05-10T09:09:01;6.53;;;4.07;;
78298;SDS011;67556;55.656;12.590;2023-05-10T09:11:36;6.13;;;4.75;;
78298;SDS011;67556;55.656;12.590;2023-05-10T09:16:31;6.55;;;4.03;;
78298;SDS011;67556;55.656;12.590;2023-05-10T09:19:07;5.18;;;4.18;;
78298;SDS011;67556;55.656;12.590;2023-05-10T09:21:37;5.65;;;4.13;;
78298;SDS011;67556;55.656;12.590;2023-05-10T09:24:05;6.68;;;4.18;;
78298;SDS011;67556;55.656;12.590;2023-05-10T09:26:45;9.43;;;4.65;;
78298;SDS011;67556;55.656;12.590;2023-05-10T09:29:39;7.07;;;4.25;;
78298;SDS011;67556;55.656;12.590;2023-05-10T09:32:07;5.40;;;4.05;;
78298;SDS011;67556;55.656;12.590;2023-05-10T09:34:34;6.82;;;3.72;;
78298;SDS011;67556;55.656;12.590;2023-05-10T09:37:10;6.28;;;3.78;;
78298;SDS011;67556;55.656;12.590;2023-05-10T09:39:39;9.30;;;5.15;;
78298;SDS011;67556;55.656;12.590;2023-05-10T09:42:06;5.53;;;3.60;;
78298;SDS011;67556;55.656;12.590;2023-05-10T09:44:48;4.57;;;3.67;;
78298;SDS011;67556;55.656;12.590;2023-05-10T09:47:16;4.88;;;3.83;;
78298;SDS011;67556;55.656;12.590;2023-05-10T09:49:44;5.75;;;3.47;;
78298;SDS011;67556;55.656;12.590;2023-05-10T09:52:15;4.60;;;4.03;;
78298;SDS011;67556;55.656;12.590;2023-05-10T09:54:43;7.35;;;3.95;;
78298;SDS011;67556;55.656;12.590;2023-05-10T09:57:28;4.80;;;3.70;;
78298;SDS011;67556;55.656;12.590;2023-05-10T09:59:54;6.07;;;3.88;;
78298;SDS011;67556;55.656;12.590;2023-05-10T10:02:27;6.93;;;3.95;;
78298;SDS011;67556;55.656;12.590;2023-05-10T10:04:59;5.90;;;3.95;;
78298;SDS011;67556;55.656;12.590;2023-05-10T10:07:38;6.75;;;3.72;;
78298;SDS011;67556;55.656;12.590;2023-05-10T10:12:49;5.43;;;3.75;;
78298;SDS011;67556;55.656;12.590;2023-05-10T10:15:16;4.80;;;3.53;;
78298;SDS011;67556;55.656;12.590;2023-05-10T10:17:44;5.70;;;3.63;;
78298;SDS011;67556;55.656;12.590;2023-05-10T10:20:14;6.88;;;3.78;;
78298;SDS011;67556;55.656;12.590;2023-05-10T10:22:50;7.47;;;3.67;;
78298;SDS011;67556;55.656;12.590;2023-05-10T10:25:26;4.45;;;3.70;;
78298;SDS011;67556;55.656;12.590;2023-05-10T10:28:01;5.35;;;3.60;;
78298;SDS011;67556;55.656;12.590;2023-05-10T10:30:47;4.90;;;3.70;;
78298;SDS011;67556;55.656;12.590;2023-05-10T10:33:28;4.03;;;3.08;;
78298;SDS011;67556;55.656;12.590;2023-05-10T10:36:04;7.03;;;3.75;;
78298;SDS011;67556;55.656;12.590;2023-05-10T10:38:57;5.57;;;3.78;;
78298;SDS011;67556;55.656;12.590;2023-05-10T10:41:29;5.28;;;3.90;;
78298;SDS011;67556;55.656;12.590;2023-05-10T10:44:22;6.47;;;3.85;;
78298;SDS011;67556;55.656;12.590;2023-05-10T10:46:58;5.03;;;4.13;;
78298;SDS011;67556;55.656;12.590;2023-05-10T10:49:45;4.90;;;3.53;;
78298;SDS011;67556;55.656;12.590;2023-05-10T10:52:23;6.15;;;4.20;;
78298;SDS011;67556;55.656;12.590;2023-05-10T10:54:56;7.32;;;4.70;;
78298;SDS011;67556;55.656;12.590;2023-05-10T10:57:27;6.93;;;4.55;;
78298;SDS011;67556;55.656;12.590;2023-05-10T11:00:22;4.65;;;4.25;;
78298;SDS011;67556;55.656;12.590;2023-05-10T11:02:56;5.68;;;3.75;;
78298;SDS011;67556;55.656;12.590;2023-05-10T11:05:24;6.55;;;3.63;;
78298;SDS011;67556;55.656;12.590;2023-05-10T11:07:59;6.50;;;4.88;;
78298;SDS011;67556;55.656;12.590;2023-05-10T11:10:26;6.60;;;3.83;;
78298;SDS011;67556;55.656;12.590;2023-05-10T11:13:13;6.68;;;4.07;;
78298;SDS011;67556;55.656;12.590;2023-05-10T11:15:57;5.30;;;4.00;;
78298;SDS011;67556;55.656;12.590;2023-05-10T11:18:54;5.72;;;3.83;;
78298;SDS011;67556;55.656;12.590;2023-05-10T11:21:43;6.85;;;3.75;;
78298;SDS011;67556;55.656;12.590;2023-05-10T11:24:13;5.60;;;4.13;;
78298;SDS011;67556;55.656;12.590;2023-05-10T11:26:40;6.10;;;3.70;;
78298;SDS011;67556;55.656;12.590;2023-05-10T11:29:08;5.13;;;3.80;;
78298;SDS011;67556;55.656;12.590;2023-05-10T11:31:42;7.75;;;4.07;;
78298;SDS011;67556;55.656;12.590;2023-05-10T11:34:10;5.57;;;3.65;;
78298;SDS011;67556;55.656;12.590;2023-05-10T11:36:37;5.80;;;3.90;;
78298;SDS011;67556;55.656;12.590;2023-05-10T11:39:06;5.00;;;4.05;;
78298;SDS011;67556;55.656;12.590;2023-05-10T11:41:32;7.60;;;4.00;;
78298;SDS011;67556;55.656;12.590;2023-05-10T11:44:03;4.32;;;3.90;;
78298;SDS011;67556;55.656;12.590;2023-05-10T11:46:32;7.65;;;4.00;;
78298;SDS011;67556;55.656;12.590;2023-05-10T11:49:06;5.45;;;3.40;;
78298;SDS011;67556;55.656;12.590;2023-05-10T11:51:50;6.72;;;4.00;;
78298;SDS011;67556;55.656;12.590;2023-05-10T11:54:18;6.63;;;3.65;;
78298;SDS011;67556;55.656;12.590;2023-05-10T11:56:48;7.88;;;4.00;;
78298;SDS011;67556;55.656;12.590;2023-05-10T11:59:16;6.18;;;3.50;;
78298;SDS011;67556;55.656;12.590;2023-05-10T12:01:43;5.22;;;3.70;;
78298;SDS011;67556;55.656;12.590;2023-05-10T12:04:10;5.93;;;3.90;;
78298;SDS011;67556;55.656;12.590;2023-05-10T12:06:37;5.45;;;3.80;;
78298;SDS011;67556;55.656;12.590;2023-05-10T12:09:06;6.68;;;3.72;;
78298;SDS011;67556;55.656;12.590;2023-05-10T12:11:36;5.68;;;3.38;;
78298;SDS011;67556;55.656;12.590;2023-05-10T12:14:05;6.05;;;3.25;;
78298;SDS011;67556;55.656;12.590;2023-05-10T12:16:32;6.25;;;3.90;;
78298;SDS011;67556;55.656;12.590;2023-05-10T12:19:11;5.05;;;3.65;;
78298;SDS011;67556;55.656;12.590;2023-05-10T12:21:37;5.28;;;3.53;;
78298;SDS011;67556;55.656;12.590;2023-05-10T12:26:42;4.47;;;3.95;;
78298;SDS011;67556;55.656;12.590;2023-05-10T12:29:21;6.45;;;3.90;;
78298;SDS011;67556;55.656;12.590;2023-05-10T12:32:00;5.82;;;3.50;;
78298;SDS011;67556;55.656;12.590;2023-05-10T12:34:36;5.63;;;4.30;;
78298;SDS011;67556;55.656;12.590;2023-05-10T12:37:23;5.90;;;3.22;;
78298;SDS011;67556;55.656;12.590;2023-05-10T12:40:19;5.05;;;3.40;;
78298;SDS011;67556;55.656;12.590;2023-05-10T12:43:04;6.15;;;3.38;;
78298;SDS011;67556;55.656;12.590;2023-05-10T12:45:33;4.93;;;3.63;;
78298;SDS011;67556;55.656;12.590;2023-05-10T12:48:09;4.65;;;3.33;;
78298;SDS011;67556;55.656;12.590;2023-05-10T12:50:40;6.88;;;3.92;;
78298;SDS011;67556;55.656;12.590;2023-05-10T12:53:21;5.63;;;3.38;;
78298;SDS011;67556;55.656;12.590;2023-05-10T12:55:52;5.47;;;3.40;;
78298;SDS011;67556;55.656;12.590;2023-05-10T12:58:38;3.70;;;3.17;;
78298;SDS011;67556;55.656;12.590;2023-05-10T13:01:04;4.13;;;3.30;;
78298;SDS011;67556;55.656;12.590;2023-05-10T13:03:32;4.22;;;3.72;;
78298;SDS011;67556;55.656;12.590;2023-05-10T13:06:21;4.82;;;3.90;;
78298;SDS011;67556;55.656;12.590;2023-05-10T13:08:49;3.90;;;2.88;;
78298;SDS011;67556;55.656;12.590;2023-05-10T13:11:35;4.93;;;3.50;;
78298;SDS011;67556;55.656;12.590;2023-05-10T13:14:30;3.88;;;3.30;;
78298;SDS011;67556;55.656;12.590;2023-05-10T13:17:09;6.07;;;3.53;;
78298;SDS011;67556;55.656;12.590;2023-05-10T13:19:38;6.00;;;3.58;;
78298;SDS011;67556;55.656;12.590;2023-05-10T13:22:21;6.55;;;3.40;;
78298;SDS011;67556;55.656;12.590;2023-05-10T13:24:54;6.38;;;4.55;;
78298;SDS011;67556;55.656;12.590;2023-05-10T13:27:23;5.30;;;3.15;;
78298;SDS011;67556;55.656;12.590;2023-05-10T13:30:20;3.90;;;3.28;;
78298;SDS011;67556;55.656;12.590;2023-05-10T13:33:05;5.30;;;3.42;;
78298;SDS011;67556;55.656;12.590;2023-05-10T13:35:38;5.82;;;3.58;;
78298;SDS011;67556;55.656;12.590;2023-05-10T13:38:06;4.95;;;3.08;;
78298;SDS011;67556;55.656;12.590;2023-05-10T13:40:51;7.88;;;3.90;;
78298;SDS011;67556;55.656;12.590;2023-05-10T13:43:38;4.78;;;3.28;;
78298;SDS011;67556;55.656;12.590;2023-05-10T13:46:19;5.45;;;3.13;;
78298;SDS011;67556;55.656;12.590;2023-05-10T13:49:04;5.38;;;3.10;;
78298;SDS011;67556;55.656;12.590;2023-05-10T13:51:36;5.30;;;3.55;;
78298;SDS011;67556;55.656;12.590;2023-05-10T13:54:24;6.35;;;3.38;;
78298;SDS011;67556;55.656;12.590;2023-05-10T13:56:54;5.93;;;3.40;;
78298;SDS011;67556;55.656;12.590;2023-05-10T13:59:44;5.30;;;3.30;;
78298;SDS011;67556;55.656;12.590;2023-05-10T14:02:13;4.18;;;3.00;;
78298;SDS011;67556;55.656;12.590;2023-05-10T14:04:42;4.15;;;2.72;;
78298;SDS011;67556;55.656;12.590;2023-05-10T14:07:08;3.88;;;3.08;;
78298;SDS011;67556;55.656;12.590;2023-05-10T14:09:37;5.20;;;3.08;;
78298;SDS011;67556;55.656;12.590;2023-05-10T14:12:04;4.15;;;3.00;;
78298;SDS011;67556;55.656;12.590;2023-05-10T14:14:32;5.03;;;3.40;;
78298;SDS011;67556;55.656;12.590;2023-05-10T14:16:58;5.32;;;3.33;;
78298;SDS011;67556;55.656;12.590;2023-05-10T14:19:25;3.45;;;3.10;;
78298;SDS011;67556;55.656;12.590;2023-05-10T14:21:54;4.32;;;3.05;;
78298;SDS011;67556;55.656;12.590;2023-05-10T14:24:20;5.50;;;3.00;;
78298;SDS011;67556;55.656;12.590;2023-05-10T14:27:07;5.03;;;2.90;;
78298;SDS011;67556;55.656;12.590;2023-05-10T14:29:33;3.72;;;3.15;;
78298;SDS011;67556;55.656;12.590;2023-05-10T14:32:02;6.40;;;4.00;;
78298;SDS011;67556;55.656;12.590;2023-05-10T14:34:36;5.57;;;2.85;;
78298;SDS011;67556;55.656;12.590;2023-05-10T14:37:16;5.72;;;2.92;;
78298;SDS011;67556;55.656;12.590;2023-05-10T14:39:45;4.38;;;2.65;;
78298;SDS011;67556;55.656;12.590;2023-05-10T14:42:28;4.80;;;3.30;;
78298;SDS011;67556;55.656;12.590;2023-05-10T14:44:59;5.20;;;3.00;;
78298;SDS011;67556;55.656;12.590;2023-05-10T14:47:46;4.75;;;3.20;;
78298;SDS011;67556;55.656;12.590;2023-05-10T14:50:12;5.05;;;3.20;;
78298;SDS011;67556;55.656;12.590;2023-05-10T14:52:45;6.35;;;3.38;;
78298;SDS011;67556;55.656;12.590;2023-05-10T14:55:17;5.03;;;3.13;;
78298;SDS011;67556;55.656;12.590;2023-05-10T14:57:45;3.90;;;2.70;;
78298;SDS011;67556;55.656;12.590;2023-05-10T15:00:14;5.57;;;3.30;;
78298;SDS011;67556;55.656;12.590;2023-05-10T15:02:53;5.95;;;2.92;;
78298;SDS011;67556;55.656;12.590;2023-05-10T15:05:25;9.07;;;3.22;;
78298;SDS011;67556;55.656;12.590;2023-05-10T15:08:07;6.70;;;3.78;;
78298;SDS011;67556;55.656;12.590;2023-05-10T15:10:43;5.88;;;3.15;;
78298;SDS011;67556;55.656;12.590;2023-05-10T15:13:23;5.38;;;3.17;;
78298;SDS011;67556;55.656;12.590;2023-05-10T15:15:49;3.95;;;3.20;;
78298;SDS011;67556;55.656;12.590;2023-05-10T15:18:15;5.15;;;2.92;;
78298;SDS011;67556;55.656;12.590;2023-05-10T15:20:49;6.90;;;2.55;;